createdAt,value
2019-04-26T00:01:53.545Z,15.54
2019-04-26T00:04:26.648Z,15.39
2019-04-26T00:06:59.631Z,15.32
2019-04-26T00:09:33.183Z,15.27
2019-04-26T00:12:06.475Z,15.25
2019-04-26T00:14:55.989Z,15.15
2019-04-26T00:17:44.912Z,15.17
2019-04-26T00:20:17.110Z,15.05
2019-04-26T00:22:49.261Z,14.94
2019-04-26T00:25:21.601Z,14.96
2019-04-26T00:27:53.224Z,14.90
2019-04-26T00:30:26.106Z,14.86
2019-04-26T00:32:58.941Z,14.77
2019-04-26T00:35:30.771Z,14.81
2019-04-26T00:38:03.137Z,14.78
2019-04-26T00:40:35.559Z,14.74
2019-04-26T00:43:07.428Z,14.73
2019-04-26T00:45:41.603Z,14.67
2019-04-26T00:48:15.266Z,14.73
2019-04-26T00:50:48.355Z,14.67
2019-04-26T00:53:21.828Z,14.70
2019-04-26T00:55:54.828Z,14.74
2019-04-26T00:58:28.268Z,14.70
2019-04-26T01:01:00.712Z,14.60
2019-04-26T01:03:33.422Z,14.63
2019-04-26T01:06:07.541Z,14.61
2019-04-26T01:08:38.423Z,14.68
2019-04-26T01:11:09.820Z,14.70
2019-04-26T01:13:41.593Z,14.65
2019-04-26T01:16:13.298Z,14.51
2019-04-26T01:18:47.011Z,14.60
2019-04-26T01:21:22.613Z,14.59
2019-04-26T01:26:33.963Z,14.77
2019-04-26T01:29:14.603Z,14.74
2019-04-26T01:32:10.081Z,14.77
2019-04-26T01:34:46.443Z,14.77
2019-04-26T01:37:19.312Z,14.72
2019-04-26T01:39:56.517Z,14.68
2019-04-26T01:42:36.434Z,14.73
2019-04-26T01:45:10.488Z,14.71
2019-04-26T01:47:42.095Z,14.64
2019-04-26T01:50:14.099Z,14.65
2019-04-26T01:52:47.295Z,14.56
2019-04-26T01:55:18.701Z,14.54
2019-04-26T01:57:50.543Z,14.41
2019-04-26T02:00:24.163Z,14.43
2019-04-26T02:02:57.296Z,14.49
2019-04-26T02:05:29.987Z,14.41
2019-04-26T02:08:01.649Z,14.37
2019-04-26T02:10:33.294Z,14.34
2019-04-26T02:13:04.756Z,14.25
2019-04-26T02:15:36.913Z,14.21
2019-04-26T02:18:08.347Z,14.15
2019-04-26T02:20:56.617Z,14.11
2019-04-26T02:23:35.341Z,14.03
2019-04-26T02:26:26.652Z,14.02
2019-04-26T02:28:59.647Z,14.11
2019-04-26T02:31:33.319Z,14.13
2019-04-26T02:34:05.388Z,13.73
2019-04-26T02:36:56.124Z,14.07
2019-04-26T02:39:17.412Z,14.12
2019-04-26T02:41:52.111Z,14.08
2019-04-26T02:44:30.893Z,14.15
2019-04-26T02:47:09.132Z,14.10
2019-04-26T02:49:43.498Z,14.05
2019-04-26T02:52:18.901Z,14.11
2019-04-26T02:55:17.045Z,14.19
2019-04-26T02:57:52.688Z,14.20
2019-04-26T03:00:24.750Z,14.20
2019-04-26T03:02:59.392Z,14.16
2019-04-26T03:05:34.275Z,14.20
2019-04-26T03:08:09.678Z,14.25
2019-04-26T03:10:44.103Z,14.28
2019-04-26T03:13:17.938Z,14.34
2019-04-26T03:15:58.838Z,14.36
2019-04-26T03:18:39.472Z,14.54
2019-04-26T03:21:34.195Z,14.57
2019-04-26T03:24:17.150Z,14.64
2019-04-26T03:27:06.934Z,14.67
2019-04-26T03:30:05.023Z,14.73
2019-04-26T03:32:57.853Z,14.68
2019-04-26T03:36:02.841Z,14.78
2019-04-26T03:38:51.059Z,14.80
2019-04-26T03:41:42.871Z,14.87
2019-04-26T03:44:24.257Z,14.86
2019-04-26T03:46:58.653Z,15.02
2019-04-26T03:50:02.229Z,14.98
2019-04-26T03:52:44.138Z,15.14
2019-04-26T03:55:28.224Z,15.05
2019-04-26T03:58:10.226Z,15.24
2019-04-26T04:00:47.043Z,15.13
2019-04-26T04:03:47.315Z,15.28
2019-04-26T04:06:23.401Z,15.37
2019-04-26T04:09:00.969Z,15.39
2019-04-26T04:11:43.050Z,15.50
2019-04-26T04:14:17.508Z,15.69
2019-04-26T04:17:05.691Z,15.78
2019-04-26T04:20:11.437Z,15.78
2019-04-26T04:22:49.408Z,15.83
2019-04-26T04:25:24.050Z,15.66
2019-04-26T04:27:58.552Z,15.70
2019-04-26T04:30:36.114Z,15.83
2019-04-26T04:33:26.417Z,16.00
2019-04-26T04:36:02.449Z,15.99
2019-04-26T04:38:40.852Z,16.07
2019-04-26T04:41:34.989Z,16.03
2019-04-26T04:44:13.947Z,16.24
2019-04-26T04:47:24.549Z,16.26
2019-04-26T04:50:12.726Z,16.30
2019-04-26T04:52:50.278Z,16.77
2019-04-26T04:55:37.620Z,16.73
2019-04-26T04:58:18.102Z,16.81
2019-04-26T05:01:32.638Z,17.02
2019-04-26T05:04:14.704Z,17.05
2019-04-26T05:07:05.757Z,17.14
2019-04-26T05:09:45.309Z,17.38
2019-04-26T05:12:27.554Z,17.45
2019-04-26T05:15:02.180Z,17.48
2019-04-26T05:17:42.667Z,17.72
2019-04-26T05:20:35.207Z,17.63
2019-04-26T05:23:18.746Z,17.83
2019-04-26T05:26:30.251Z,17.89
2019-04-26T05:29:18.471Z,18.25
2019-04-26T05:31:54.837Z,18.37
2019-04-26T05:34:49.018Z,18.31
2019-04-26T05:37:38.799Z,18.31
2019-04-26T05:40:19.597Z,18.35
2019-04-26T05:43:19.559Z,18.43
2019-04-26T05:46:02.365Z,18.44
2019-04-26T05:49:12.548Z,18.47
2019-04-26T05:52:18.332Z,18.61
2019-04-26T05:55:24.773Z,18.83
2019-04-26T05:58:06.652Z,18.77
2019-04-26T06:00:38.506Z,19.11
2019-04-26T06:03:24.767Z,19.29
2019-04-26T06:06:31.120Z,19.23
2019-04-26T06:09:37.078Z,19.44
2019-04-26T06:12:22.455Z,19.45
2019-04-26T06:15:08.368Z,19.44
2019-04-26T06:17:51.720Z,19.77
2019-04-26T06:20:38.293Z,19.87
2019-04-26T06:23:22.094Z,19.99
2019-04-26T06:26:29.820Z,20.32
2019-04-26T06:29:14.169Z,19.95
2019-04-26T06:31:55.919Z,20.14
2019-04-26T06:35:05.863Z,20.35
2019-04-26T06:38:05.275Z,20.30
2019-04-26T06:41:07.132Z,20.27
2019-04-26T06:44:00.353Z,20.33
2019-04-26T06:46:48.382Z,20.32
2019-04-26T06:49:33.934Z,20.37
2019-04-26T06:52:08.702Z,19.99
2019-04-26T06:54:56.397Z,20.27
2019-04-26T06:57:59.414Z,20.15
2019-04-26T07:00:54.541Z,20.36
2019-04-26T07:04:04.122Z,20.31
2019-04-26T07:07:13.551Z,20.66
2019-04-26T07:10:04.374Z,20.86
2019-04-26T07:12:59.625Z,21.28
2019-04-26T07:16:17.231Z,21.56
2019-04-26T07:18:40.742Z,21.40
2019-04-26T07:21:23.102Z,21.48
2019-04-26T07:24:20.468Z,21.71
2019-04-26T07:27:01.638Z,21.74
2019-04-26T07:30:07.246Z,21.83
2019-04-26T07:33:02.404Z,22.23
2019-04-26T07:35:50.266Z,22.02
2019-04-26T07:38:51.927Z,22.37
2019-04-26T07:41:56.129Z,22.49
2019-04-26T07:44:49.385Z,22.66
2019-04-26T07:47:51.203Z,22.80
2019-04-26T07:50:40.822Z,22.70
2019-04-26T07:53:39.324Z,22.96
2019-04-26T07:56:30.887Z,23.26
2019-04-26T07:59:45.118Z,23.72
2019-04-26T08:02:24.260Z,23.86
2019-04-26T08:05:07.462Z,23.39
2019-04-26T08:07:41.939Z,23.48
2019-04-26T08:10:19.504Z,23.62
2019-04-26T08:12:57.114Z,24.01
2019-04-26T08:15:45.218Z,24.05
2019-04-26T08:18:37.085Z,24.07
2019-04-26T08:21:23.617Z,24.32
2019-04-26T08:23:59.926Z,24.55
2019-04-26T08:26:34.770Z,24.52
2019-04-26T08:29:08.477Z,24.49
2019-04-26T08:31:42.840Z,24.28
2019-04-26T08:34:20.630Z,24.52
2019-04-26T08:36:57.408Z,24.49
2019-04-26T08:39:46.407Z,24.38
2019-04-26T08:42:23.789Z,24.14
2019-04-26T08:44:58.875Z,24.38
2019-04-26T08:47:36.646Z,24.51
2019-04-26T08:50:18.134Z,24.54
2019-04-26T08:52:52.497Z,24.70
2019-04-26T08:55:30.208Z,24.57
2019-04-26T08:58:06.150Z,24.85
2019-04-26T09:00:42.437Z,24.92
2019-04-26T09:03:36.003Z,24.87
2019-04-26T09:06:14.419Z,24.72
2019-04-26T09:08:49.367Z,24.93
2019-04-26T09:11:26.144Z,25.13
2019-04-26T09:13:58.133Z,25.26
2019-04-26T09:16:31.657Z,25.57
2019-04-26T09:19:03.311Z,25.73
2019-04-26T09:21:38.380Z,25.65
2019-04-26T09:24:12.959Z,25.78
2019-04-26T09:26:52.685Z,25.82
2019-04-26T09:29:30.573Z,25.11
2019-04-26T09:32:02.767Z,25.58
2019-04-26T09:34:41.404Z,25.71
2019-04-26T09:37:12.029Z,25.62
2019-04-26T09:39:43.715Z,25.84
2019-04-26T09:42:22.809Z,25.88
2019-04-26T09:45:02.503Z,25.68
2019-04-26T09:47:51.126Z,25.85
2019-04-26T09:50:26.409Z,25.90
2019-04-26T09:56:02.055Z,25.96
2019-04-26T09:58:38.381Z,26.12
2019-04-26T10:01:10.674Z,26.38
2019-04-26T10:03:42.592Z,26.05
2019-04-26T10:06:15.275Z,26.45
2019-04-26T10:08:48.009Z,26.68
2019-04-26T10:11:21.601Z,26.73
2019-04-26T10:13:59.057Z,26.94
2019-04-26T10:16:49.699Z,26.99
2019-04-26T10:19:23.299Z,27.03
2019-04-26T10:21:54.990Z,27.41
2019-04-26T10:24:27.366Z,27.32
2019-04-26T10:27:03.381Z,27.44
2019-04-26T10:29:37.904Z,27.79
2019-04-26T10:32:09.584Z,28.25
2019-04-26T10:34:42.652Z,28.68
2019-04-26T10:37:14.399Z,28.68
2019-04-26T10:39:45.800Z,28.67
2019-04-26T10:42:17.549Z,29.00
2019-04-26T10:44:52.039Z,29.39
2019-04-26T10:47:24.754Z,28.99
2019-04-26T10:49:58.172Z,29.38
2019-04-26T10:52:54.276Z,29.44
2019-04-26T10:55:35.019Z,30.03
2019-04-26T10:58:10.617Z,30.58
2019-04-26T11:00:52.642Z,31.00
2019-04-26T11:03:25.533Z,31.09
2019-04-26T11:05:56.964Z,31.60
2019-04-26T11:08:29.481Z,31.43
2019-04-26T11:11:01.065Z,31.41
2019-04-26T11:13:32.594Z,31.80
2019-04-26T11:16:08.546Z,31.72
2019-04-26T11:18:47.006Z,31.93
2019-04-26T11:21:22.465Z,32.42
2019-04-26T11:23:57.790Z,32.08
2019-04-26T11:26:34.795Z,31.59
2019-04-26T11:29:09.146Z,31.51
2019-04-26T11:31:42.088Z,32.26
2019-04-26T11:34:14.156Z,32.85
2019-04-26T11:36:46.060Z,32.87
2019-04-26T11:39:18.570Z,32.19
2019-04-26T11:41:51.837Z,32.59
2019-04-26T11:44:27.617Z,32.61
2019-04-26T11:46:59.424Z,32.04
2019-04-26T11:49:30.868Z,31.20
2019-04-26T11:52:04.083Z,31.91
2019-04-26T11:54:36.175Z,31.59
2019-04-26T11:57:15.030Z,30.46
2019-04-26T11:59:48.695Z,30.65
2019-04-26T12:02:24.836Z,31.25
2019-04-26T12:05:19.644Z,31.81
2019-04-26T12:08:35.404Z,29.68
2019-04-26T12:11:18.388Z,28.54
2019-04-26T12:13:42.118Z,28.09
2019-04-26T12:16:14.575Z,29.35
2019-04-26T12:18:51.155Z,29.90
2019-04-26T12:21:22.756Z,29.61
2019-04-26T12:23:55.521Z,29.89
2019-04-26T12:26:42.310Z,30.30
2019-04-26T12:29:06.482Z,31.31
2019-04-26T12:31:39.653Z,31.17
2019-04-26T12:34:14.180Z,31.70
2019-04-26T12:36:46.741Z,31.84
2019-04-26T12:39:19.407Z,32.26
2019-04-26T12:41:51.836Z,32.82
2019-04-26T12:44:25.820Z,32.83
2019-04-26T12:47:03.449Z,32.99
2019-04-26T12:49:35.507Z,32.89
2019-04-26T12:52:07.460Z,32.86
2019-04-26T12:54:42.668Z,33.08
2019-04-26T12:57:16.263Z,33.49
2019-04-26T12:59:48.393Z,32.98
2019-04-26T13:02:21.996Z,33.53
2019-04-26T13:04:53.791Z,33.41
2019-04-26T13:07:25.492Z,33.21
2019-04-26T13:10:15.243Z,32.42
2019-04-26T13:13:01.494Z,32.93
2019-04-26T13:15:59.748Z,32.89
2019-04-26T13:18:33.147Z,33.55
2019-04-26T13:21:08.046Z,33.85
2019-04-26T13:23:40.749Z,32.63
2019-04-26T13:26:12.679Z,32.74
2019-04-26T13:28:44.576Z,32.81
2019-04-26T13:31:16.056Z,32.72
2019-04-26T13:33:47.662Z,32.59
2019-04-26T13:36:25.230Z,32.30
2019-04-26T13:38:55.611Z,31.98
2019-04-26T13:41:28.060Z,31.60
2019-04-26T13:44:01.275Z,31.76
2019-04-26T13:46:38.232Z,31.32
2019-04-26T13:49:14.187Z,31.65
2019-04-26T13:51:46.911Z,29.89
2019-04-26T13:54:21.198Z,28.93
2019-04-26T13:56:51.916Z,28.08
2019-04-26T13:59:28.190Z,27.70
2019-04-26T14:02:10.958Z,26.90
2019-04-26T14:04:32.312Z,26.55
2019-04-26T14:07:04.145Z,26.55
2019-04-26T14:09:36.208Z,26.34
2019-04-26T14:12:18.169Z,26.47
2019-04-26T14:14:49.991Z,26.45
2019-04-26T14:17:21.916Z,26.80
2019-04-26T14:19:53.587Z,27.78
2019-04-26T14:22:26.701Z,28.38
2019-04-26T14:25:02.812Z,27.63
2019-04-26T14:27:37.732Z,27.12
2019-04-26T14:30:13.550Z,26.72
2019-04-26T14:32:45.238Z,26.12
2019-04-26T14:35:17.490Z,25.76
2019-04-26T14:37:51.489Z,25.51
2019-04-26T14:40:35.176Z,25.43
2019-04-26T14:43:08.448Z,25.13
2019-04-26T14:45:55.223Z,24.87
2019-04-26T14:48:20.847Z,24.87
2019-04-26T14:50:49.620Z,24.75
2019-04-26T14:53:21.551Z,24.97
2019-04-26T14:55:54.625Z,25.21
2019-04-26T14:58:30.107Z,25.18
2019-04-26T15:01:06.483Z,25.54
2019-04-26T15:03:43.110Z,26.56
2019-04-26T15:06:23.790Z,26.60
2019-04-26T15:08:55.393Z,25.99
2019-04-26T15:11:26.885Z,25.49
2019-04-26T15:14:05.775Z,24.99
2019-04-26T15:16:37.413Z,24.47
2019-04-26T15:19:14.099Z,24.29
2019-04-26T15:21:46.696Z,24.10
2019-04-26T15:24:18.392Z,23.87
2019-04-26T15:26:51.606Z,23.65
2019-04-26T15:29:28.158Z,23.75
2019-04-26T15:32:00.712Z,23.49
2019-04-26T15:34:36.203Z,23.45
2019-04-26T15:37:09.901Z,23.43
2019-04-26T15:39:50.311Z,23.39
2019-04-26T15:42:33.787Z,23.30
2019-04-26T15:45:15.152Z,23.22
2019-04-26T15:48:04.781Z,22.99
2019-04-26T15:50:53.581Z,23.04
2019-04-26T15:53:25.875Z,22.97
2019-04-26T15:55:57.357Z,22.89
2019-04-26T15:58:29.054Z,22.82
2019-04-26T16:01:10.820Z,22.77
2019-04-26T16:04:04.303Z,22.69
2019-04-26T16:06:37.362Z,22.53
2019-04-26T16:09:13.953Z,22.40
2019-04-26T16:11:50.877Z,22.18
2019-04-26T16:14:26.368Z,22.17
2019-04-26T16:17:03.115Z,22.19
2019-04-26T16:19:37.728Z,22.05
2019-04-26T16:22:11.631Z,21.97
2019-04-26T16:24:43.262Z,21.81
2019-04-26T16:27:14.873Z,21.74
2019-04-26T16:29:50.881Z,21.64
2019-04-26T16:32:29.966Z,21.57
2019-04-26T16:35:02.911Z,21.49
2019-04-26T16:37:35.308Z,21.30
2019-04-26T16:40:12.296Z,21.20
2019-04-26T16:42:44.056Z,21.12
2019-04-26T16:45:15.745Z,21.09
2019-04-26T16:47:48.862Z,21.03
2019-04-26T16:50:25.280Z,20.96
2019-04-26T16:52:55.264Z,20.81
2019-04-26T16:55:26.945Z,20.79
2019-04-26T16:57:58.528Z,20.64
2019-04-26T17:00:48.243Z,20.51
2019-04-26T17:03:08.048Z,20.42
2019-04-26T17:05:47.652Z,20.42
2019-04-26T17:08:12.829Z,20.35
2019-04-26T17:10:45.442Z,20.18
2019-04-26T17:13:25.522Z,20.01
2019-04-26T17:15:58.177Z,19.90
2019-04-26T17:18:27.196Z,19.81
2019-04-26T17:20:59.917Z,19.73
2019-04-26T17:23:38.943Z,19.85
2019-04-26T17:26:33.669Z,19.68
2019-04-26T17:29:04.074Z,19.62
2019-04-26T17:31:35.652Z,19.54
2019-04-26T17:34:07.210Z,19.66
2019-04-26T17:36:38.700Z,19.64
2019-04-26T17:39:16.884Z,19.61
2019-04-26T17:41:50.787Z,19.51
2019-04-26T17:44:20.586Z,19.48
2019-04-26T17:46:56.321Z,19.44
2019-04-26T17:49:27.130Z,19.29
2019-04-26T17:52:00.342Z,19.17
2019-04-26T17:54:46.251Z,18.92
2019-04-26T17:57:09.309Z,18.93
2019-04-26T17:59:45.256Z,18.82
2019-04-26T18:02:25.853Z,18.81
2019-04-26T18:04:58.097Z,18.73
2019-04-26T18:07:42.932Z,18.59
2019-04-26T18:10:04.772Z,18.53
2019-04-26T18:12:40.718Z,18.42
2019-04-26T18:15:12.524Z,18.34
2019-04-26T18:17:45.255Z,18.22
2019-04-26T18:20:24.286Z,18.13
2019-04-26T18:23:10.015Z,17.98
2019-04-26T18:25:44.927Z,17.88
2019-04-26T18:28:18.922Z,17.84
2019-04-26T18:30:50.566Z,17.76
2019-04-26T18:33:26.086Z,17.66
2019-04-26T18:35:58.836Z,17.83
2019-04-26T18:38:30.869Z,17.82
2019-04-26T18:41:03.879Z,17.81
2019-04-26T18:43:35.529Z,17.62
2019-04-26T18:46:09.836Z,17.49
2019-04-26T18:48:44.029Z,17.40
2019-04-26T18:51:15.838Z,17.33
2019-04-26T18:53:48.897Z,17.14
2019-04-26T18:56:20.898Z,16.97
2019-04-26T18:58:55.907Z,16.95
2019-04-26T19:01:27.705Z,16.88
2019-04-26T19:04:00.282Z,16.77
2019-04-26T19:06:37.975Z,16.65
2019-04-26T19:09:09.154Z,16.58
2019-04-26T19:11:48.615Z,16.48
2019-04-26T19:14:21.870Z,16.53
2019-04-26T19:16:59.200Z,16.62
2019-04-26T19:19:32.814Z,16.55
2019-04-26T19:22:09.357Z,16.59
2019-04-26T19:24:41.929Z,16.43
2019-04-26T19:27:22.390Z,16.43
2019-04-26T19:29:51.793Z,16.25
2019-04-26T19:32:24.659Z,16.13
2019-04-26T19:34:56.463Z,15.97
2019-04-26T19:37:36.749Z,15.84
2019-04-26T19:40:09.059Z,15.75
2019-04-26T19:42:42.149Z,15.71
2019-04-26T19:45:22.393Z,15.74
2019-04-26T19:48:02.332Z,15.72
2019-04-26T19:50:48.975Z,15.68
2019-04-26T19:53:21.352Z,15.64
2019-04-26T19:55:58.766Z,15.61
2019-04-26T19:58:33.863Z,15.57
2019-04-26T20:01:06.055Z,15.61
2019-04-26T20:03:40.620Z,15.63
2019-04-26T20:06:12.605Z,15.64
2019-04-26T20:08:47.956Z,15.69
2019-04-26T20:11:19.116Z,15.66
2019-04-26T20:13:55.186Z,15.59
2019-04-26T20:16:26.022Z,15.69
2019-04-26T20:18:57.912Z,15.71
2019-04-26T20:21:32.068Z,15.88
2019-04-26T20:24:05.139Z,16.09
2019-04-26T20:26:41.940Z,16.31
2019-04-26T20:29:13.678Z,16.46
2019-04-26T20:31:51.958Z,16.61
2019-04-26T20:34:23.641Z,16.75
2019-04-26T20:36:55.585Z,16.68
2019-04-26T20:39:27.472Z,16.74
2019-04-26T20:42:03.827Z,16.84
2019-04-26T20:44:48.062Z,16.82
2019-04-26T20:47:14.260Z,16.94
2019-04-26T20:49:49.664Z,16.98
2019-04-26T20:52:16.510Z,17.07
2019-04-26T20:54:51.216Z,17.08
2019-04-26T20:57:26.689Z,17.00
2019-04-26T21:00:01.521Z,16.92
2019-04-26T21:02:32.412Z,16.92
2019-04-26T21:05:11.189Z,16.78
2019-04-26T21:07:49.435Z,16.73
2019-04-26T21:10:21.993Z,16.77
2019-04-26T21:12:52.149Z,16.85
2019-04-26T21:15:24.214Z,16.74
2019-04-26T21:18:00.570Z,16.68
2019-04-26T21:20:32.739Z,16.75
2019-04-26T21:23:04.072Z,16.71
2019-04-26T21:25:37.407Z,16.63
2019-04-26T21:28:19.959Z,16.56
2019-04-26T21:31:09.229Z,16.49
2019-04-26T21:34:01.338Z,16.42
2019-04-26T21:36:40.888Z,16.37
2019-04-26T21:39:13.677Z,16.32
2019-04-26T21:41:48.455Z,16.19
2019-04-26T21:44:25.186Z,16.19
2019-04-26T21:47:03.346Z,16.19
2019-04-26T21:49:38.007Z,16.13
2019-04-26T21:52:13.638Z,16.12
2019-04-26T21:54:56.455Z,16.05
2019-04-26T21:57:35.044Z,15.89
2019-04-26T22:00:11.402Z,15.97
2019-04-26T22:02:54.110Z,15.87
2019-04-26T22:05:30.363Z,15.80
2019-04-26T22:08:01.808Z,15.79
2019-04-26T22:10:43.701Z,15.76
2019-04-26T22:13:18.204Z,15.69
2019-04-26T22:15:54.507Z,15.66
2019-04-26T22:18:26.854Z,15.59
2019-04-26T22:21:03.870Z,15.45
2019-04-26T22:23:47.576Z,15.28
2019-04-26T22:26:17.705Z,15.29
2019-04-26T22:28:53.293Z,15.22
2019-04-26T22:31:25.923Z,15.21
2019-04-26T22:33:57.513Z,15.20
2019-04-26T22:36:30.785Z,15.28
2019-04-26T22:39:04.636Z,15.28
2019-04-26T22:41:38.247Z,15.21
2019-04-26T22:44:11.593Z,15.09
2019-04-26T22:47:03.711Z,15.01
2019-04-26T22:49:41.655Z,14.92
2019-04-26T22:52:11.100Z,14.82
2019-04-26T22:54:46.412Z,14.86
2019-04-26T22:57:26.385Z,14.75
2019-04-26T22:59:58.243Z,14.57
2019-04-26T23:02:30.206Z,14.48
2019-04-26T23:05:02.100Z,14.47
2019-04-26T23:07:35.338Z,14.51
2019-04-26T23:10:08.899Z,14.51
2019-04-26T23:12:51.203Z,14.50
2019-04-26T23:15:43.146Z,14.43
2019-04-26T23:18:33.455Z,14.28
2019-04-26T23:21:14.949Z,14.18
2019-04-26T23:23:46.178Z,14.03
2019-04-26T23:26:19.819Z,14.06
2019-04-26T23:28:53.509Z,13.98
2019-04-26T23:31:27.084Z,13.98
2019-04-26T23:33:58.948Z,13.99
2019-04-26T23:36:30.731Z,13.92
2019-04-26T23:39:03.417Z,13.80
2019-04-26T23:41:41.284Z,13.73
2019-04-26T23:44:13.257Z,13.67
2019-04-26T23:46:46.342Z,13.55
2019-04-26T23:49:19.213Z,13.57
2019-04-26T23:51:53.538Z,13.80
2019-04-26T23:54:28.077Z,13.87
2019-04-26T23:57:02.878Z,13.68
2019-04-26T23:59:35.217Z,13.41
